Time,TemperatureF,DewpointF,PressureIn,WindDirection,WindDirectionDegrees,WindSpeedMPH,WindSpeedGustMPH,Humidity,HourlyPrecipIn,Conditions,Clouds,dailyrainin,SoftwareType,DateUTC
2013-05-26 00:11:00,46.6,45.0,30.25,ENE,75,1.0,2.0,94,0.00,,,0.00,weatherlink.com 1.10,2013-05-26 05:11:00,
2013-05-26 00:26:00,46.5,45.0,30.25,ESE,110,1.0,1.0,93,0.00,,,0.00,weatherlink.com 1.10,2013-05-26 05:26:00,
2013-05-26 00:41:00,46.6,44.0,30.25,NE,48,1.0,2.0,92,0.00,,,0.00,weatherlink.com 1.10,2013-05-26 05:41:00,
2013-05-26 00:56:00,45.8,45.0,30.23,NE,47,4.0,4.0,95,0.00,,,0.00,weatherlink.com 1.10,2013-05-26 05:56:00,
2013-05-26 01:11:00,45.5,44.0,30.22,ENE,68,1.0,6.0,95,0.00,,,0.00,weatherlink.com 1.10,2013-05-26 06:11:00,
2013-05-26 01:26:00,45.9,44.0,30.22,East,94,2.0,5.0,93,0.00,,,0.00,weatherlink.com 1.10,2013-05-26 06:26:00,
2013-05-26 01:41:00,46.3,44.0,30.21,NE,50,1.0,4.0,90,0.00,,,0.00,weatherlink.com 1.10,2013-05-26 06:41:00,
2013-05-26 01:56:00,46.5,44.0,30.21,NE,55,0.0,1.0,89,0.00,,,0.00,weatherlink.com 1.10,2013-05-26 06:56:00,
2013-05-26 02:11:00,46.2,43.0,30.21,NNE,22,0.0,2.0,88,0.00,,,0.00,weatherlink.com 1.10,2013-05-26 07:11:00,
2013-05-26 02:26:00,45.9,43.0,30.20,NE,39,0.0,1.0,88,0.00,,,0.00,weatherlink.com 1.10,2013-05-26 07:26:00,
2013-05-26 02:41:00,46.9,44.0,30.21,WNW,291,0.0,2.0,88,0.00,,,0.00,weatherlink.com 1.10,2013-05-26 07:41:00,
2013-05-26 02:57:00,47.1,44.0,30.20,East,96,0.0,1.0,88,0.00,,,0.00,weatherlink.com 1.10,2013-05-26 07:57:00,
2013-05-26 03:12:00,47.3,45.0,30.21,SE,125,0.0,2.0,90,0.00,,,0.00,weatherlink.com 1.10,2013-05-26 08:12:00,
2013-05-26 03:27:00,47.3,45.0,30.21,SE,127,1.0,2.0,90,0.00,,,0.00,weatherlink.com 1.10,2013-05-26 08:27:00,
2013-05-26 03:42:00,47.4,45.0,30.21,ENE,76,1.0,3.0,90,0.00,,,0.00,weatherlink.com 1.10,2013-05-26 08:42:00,
2013-05-26 03:57:00,47.6,44.0,30.22,ENE,60,3.0,4.0,88,0.00,,,0.00,weatherlink.com 1.10,2013-05-26 08:57:00,
2013-05-26 04:12:00,47.6,44.0,30.22,ENE,63,3.0,7.0,87,0.00,,,0.00,weatherlink.com 1.10,2013-05-26 09:12:00,
2013-05-26 04:28:00,48.0,43.0,30.21,East,93,4.0,6.0,84,0.00,,,0.00,weatherlink.com 1.10,2013-05-26 09:28:00,
2013-05-26 04:42:00,48.1,42.0,30.21,ENE,65,5.0,9.0,80,0.00,,,0.00,weatherlink.com 1.10,2013-05-26 09:42:00,
2013-05-26 04:57:00,48.0,42.0,30.20,NE,43,6.0,10.0,80,0.00,,,0.00,weatherlink.com 1.10,2013-05-26 09:57:00,
2013-05-26 05:12:00,48.0,41.0,30.19,NNE,33,8.0,12.0,77,0.00,,,0.00,weatherlink.com 1.10,2013-05-26 10:12:00,
2013-05-26 05:27:00,48.0,40.0,30.21,NE,47,8.0,9.0,75,0.00,,,0.00,weatherlink.com 1.10,2013-05-26 10:27:00,
2013-05-26 05:42:00,48.0,40.0,30.22,East,80,6.0,10.0,74,0.00,,,0.00,weatherlink.com 1.10,2013-05-26 10:42:00,
2013-05-26 05:57:00,48.0,40.0,30.22,NNE,25,2.0,7.0,75,0.00,,,0.00,weatherlink.com 1.10,2013-05-26 10:57:00,
2013-05-26 06:12:00,47.9,40.0,30.21,East,84,6.0,9.0,74,0.00,,,0.00,weatherlink.com 1.10,2013-05-26 11:12:00,
2013-05-26 06:27:00,48.7,40.0,30.21,ESE,118,4.0,11.0,72,0.00,,,0.00,weatherlink.com 1.10,2013-05-26 11:27:00,
2013-05-26 06:42:00,49.2,40.0,30.22,ESE,122,3.0,7.0,70,0.00,,,0.00,weatherlink.com 1.10,2013-05-26 11:42:00,
2013-05-26 06:57:00,50.0,40.0,30.23,East,96,1.0,4.0,69,0.00,,,0.00,weatherlink.com 1.10,2013-05-26 11:57:00,
2013-05-26 07:12:00,50.3,40.0,30.23,East,94,1.0,7.0,68,0.00,,,0.00,weatherlink.com 1.10,2013-05-26 12:12:00,
2013-05-26 07:27:00,50.3,40.0,30.23,SE,130,1.0,9.0,69,0.00,,,0.00,weatherlink.com 1.10,2013-05-26 12:27:00,
2013-05-26 07:42:00,50.7,41.0,30.23,ESE,117,0.0,5.0,69,0.00,,,0.00,weatherlink.com 1.10,2013-05-26 12:42:00,
2013-05-26 07:57:00,50.9,42.0,30.22,SE,134,5.0,6.0,71,0.00,,,0.00,weatherlink.com 1.10,2013-05-26 12:57:00,
2013-05-26 08:12:00,51.4,42.0,30.22,ENE,77,6.0,8.0,69,0.00,,,0.00,weatherlink.com 1.10,2013-05-26 13:12:00,
2013-05-26 08:27:00,51.9,41.0,30.21,East,83,3.0,8.0,67,0.00,,,0.00,weatherlink.com 1.10,2013-05-26 13:27:00,
2013-05-26 08:42:00,52.3,42.0,30.21,SE,141,5.0,9.0,67,0.00,,,0.00,weatherlink.com 1.10,2013-05-26 13:42:00,
2013-05-26 08:57:00,52.4,42.0,30.21,North,353,3.0,8.0,68,0.00,,,0.00,weatherlink.com 1.10,2013-05-26 13:57:00,
2013-05-26 09:12:00,52.6,42.0,30.22,ESE,106,4.0,8.0,68,0.00,,,0.00,weatherlink.com 1.10,2013-05-26 14:12:00,
2013-05-26 09:27:00,52.8,43.0,30.22,ESE,111,2.0,7.0,69,0.00,,,0.00,weatherlink.com 1.10,2013-05-26 14:27:00,
2013-05-26 09:42:00,53.0,43.0,30.21,SE,129,4.0,7.0,70,0.00,,,0.00,weatherlink.com 1.10,2013-05-26 14:42:00,
2013-05-26 09:57:00,53.5,44.0,30.21,ENE,65,2.0,9.0,70,0.00,,,0.00,weatherlink.com 1.10,2013-05-26 14:57:00,
2013-05-26 10:12:00,54.3,44.0,30.20,East,94,9.0,12.0,68,0.00,,,0.00,weatherlink.com 1.10,2013-05-26 15:12:00,
2013-05-26 10:27:00,55.3,45.0,30.21,SSE,163,5.0,11.0,68,0.00,,,0.00,weatherlink.com 1.10,2013-05-26 15:27:00,
2013-05-26 10:42:00,55.6,44.0,30.21,East,96,8.0,8.0,66,0.00,,,0.00,weatherlink.com 1.10,2013-05-26 15:42:00,
2013-05-26 10:57:00,55.7,45.0,30.21,ESE,105,5.0,8.0,67,0.00,,,0.00,weatherlink.com 1.10,2013-05-26 15:57:00,
2013-05-26 11:12:00,55.8,46.0,30.22,SE,136,4.0,10.0,69,0.00,,,0.00,weatherlink.com 1.10,2013-05-26 16:12:00,
2013-05-26 11:27:00,55.7,47.0,30.22,ENE,68,8.0,12.0,72,0.00,,,0.00,weatherlink.com 1.10,2013-05-26 16:27:00,
2013-05-26 11:42:00,55.7,48.0,30.22,East,82,4.0,10.0,74,0.00,,,0.00,weatherlink.com 1.10,2013-05-26 16:42:00,
2013-05-26 11:57:00,55.5,48.0,30.23,SE,142,1.0,5.0,77,0.00,,,0.00,weatherlink.com 1.10,2013-05-26 16:57:00,
2013-05-26 12:12:00,54.0,49.0,30.24,SW,221,1.0,6.0,84,0.01,,,0.01,weatherlink.com 1.10,2013-05-26 17:12:00,
2013-05-26 12:28:00,53.2,50.0,30.23,SSW,207,1.0,2.0,90,0.03,,,0.03,weatherlink.com 1.10,2013-05-26 17:28:00,
2013-05-26 12:43:00,52.9,50.0,30.22,ESE,105,1.0,3.0,91,0.05,,,0.05,weatherlink.com 1.10,2013-05-26 17:43:00,
2013-05-26 12:58:00,52.3,50.0,30.20,NE,56,3.0,7.0,93,0.07,,,0.08,weatherlink.com 1.10,2013-05-26 17:58:00,
2013-05-26 13:13:00,52.3,51.0,30.19,NE,49,4.0,7.0,95,0.09,,,0.10,weatherlink.com 1.10,2013-05-26 18:13:00,
2013-05-26 13:28:00,52.5,51.0,30.18,East,93,7.0,7.0,96,0.08,,,0.11,weatherlink.com 1.10,2013-05-26 18:28:00,
2013-05-26 13:43:00,52.7,52.0,30.17,ENE,60,2.0,6.0,97,0.06,,,0.12,weatherlink.com 1.10,2013-05-26 18:43:00,
2013-05-26 13:58:00,52.7,52.0,30.18,NE,34,1.0,4.0,96,0.05,,,0.14,weatherlink.com 1.10,2013-05-26 18:58:00,
2013-05-26 14:13:00,52.7,52.0,30.18,NE,53,1.0,4.0,96,0.05,,,0.15,weatherlink.com 1.10,2013-05-26 19:13:00,
2013-05-26 14:28:00,52.6,52.0,30.18,ENE,63,1.0,4.0,97,0.08,,,0.19,weatherlink.com 1.10,2013-05-26 19:28:00,
2013-05-26 14:43:00,52.6,52.0,30.15,ESE,103,6.0,8.0,97,0.13,,,0.25,weatherlink.com 1.10,2013-05-26 19:43:00,
2013-05-26 14:58:00,52.7,52.0,30.13,SSE,167,5.0,17.0,97,0.15,,,0.29,weatherlink.com 1.10,2013-05-26 19:58:00,
2013-05-26 15:13:00,53.4,53.0,30.08,ESE,115,15.0,15.0,97,0.15,,,0.31,weatherlink.com 1.10,2013-05-26 20:13:00,
2013-05-26 15:28:00,53.9,53.0,30.08,SE,144,4.0,24.0,97,0.14,,,0.33,weatherlink.com 1.10,2013-05-26 20:28:00,
2013-05-26 15:43:00,54.5,54.0,30.13,ENE,61,6.0,6.0,97,0.08,,,0.33,weatherlink.com 1.10,2013-05-26 20:43:00,
2013-05-26 15:58:00,55.1,54.0,30.11,ESE,111,2.0,11.0,97,0.04,,,0.33,weatherlink.com 1.10,2013-05-26 20:58:00,
2013-05-26 16:13:00,56.0,55.0,30.11,ENE,65,3.0,11.0,96,0.02,,,0.33,weatherlink.com 1.10,2013-05-26 21:13:00,
2013-05-26 16:28:00,56.9,55.0,30.12,ENE,77,3.0,10.0,94,0.00,,,0.33,weatherlink.com 1.10,2013-05-26 21:28:00,
2013-05-26 16:43:00,56.9,55.0,30.13,ENE,58,3.0,9.0,94,0.00,,,0.33,weatherlink.com 1.10,2013-05-26 21:43:00,
2013-05-26 16:58:00,56.9,55.0,30.12,ENE,64,4.0,8.0,94,0.00,,,0.33,weatherlink.com 1.10,2013-05-26 21:58:00,
2013-05-26 17:13:00,56.9,55.0,30.11,East,85,6.0,9.0,94,0.00,,,0.33,weatherlink.com 1.10,2013-05-26 22:13:00,
2013-05-26 17:28:00,56.9,55.0,30.12,NE,54,3.0,8.0,94,0.01,,,0.34,weatherlink.com 1.10,2013-05-26 22:28:00,
2013-05-26 17:43:00,56.8,55.0,30.12,East,93,1.0,4.0,95,0.01,,,0.34,weatherlink.com 1.10,2013-05-26 22:43:00,
2013-05-26 17:58:00,56.7,55.0,30.10,NE,56,5.0,8.0,95,0.01,,,0.34,weatherlink.com 1.10,2013-05-26 22:58:00,
2013-05-26 18:13:00,56.7,56.0,30.10,East,90,4.0,6.0,96,0.02,,,0.35,weatherlink.com 1.10,2013-05-26 23:13:00,
2013-05-26 18:28:00,56.6,56.0,30.09,ENE,72,6.0,8.0,97,0.02,,,0.36,weatherlink.com 1.10,2013-05-26 23:28:00,
2013-05-26 18:43:00,56.6,56.0,30.08,ENE,67,8.0,8.0,97,0.02,,,0.36,weatherlink.com 1.10,2013-05-26 23:43:00,
2013-05-26 18:58:00,56.6,56.0,30.07,ENE,72,7.0,9.0,97,0.02,,,0.36,weatherlink.com 1.10,2013-05-26 23:58:00,
2013-05-26 19:13:00,56.6,56.0,30.06,NE,41,7.0,11.0,96,0.02,,,0.37,weatherlink.com 1.10,2013-05-27 00:13:00,
2013-05-26 19:28:00,56.5,55.0,30.06,ENE,58,7.0,13.0,96,0.01,,,0.37,weatherlink.com 1.10,2013-05-27 00:28:00,
2013-05-26 19:43:00,56.6,55.0,30.07,ENE,72,8.0,13.0,95,0.01,,,0.37,weatherlink.com 1.10,2013-05-27 00:43:00,
2013-05-26 19:58:00,56.8,55.0,30.07,NE,39,4.0,15.0,95,0.01,,,0.37,weatherlink.com 1.10,2013-05-27 00:58:00,
2013-05-26 20:13:00,56.7,55.0,30.08,East,101,5.0,8.0,95,0.00,,,0.37,weatherlink.com 1.10,2013-05-27 01:13:00,
2013-05-26 20:28:00,56.8,55.0,30.07,East,101,9.0,11.0,94,0.00,,,0.37,weatherlink.com 1.10,2013-05-27 01:28:00,
2013-05-26 20:43:00,56.6,55.0,30.06,NE,56,4.0,14.0,95,0.01,,,0.38,weatherlink.com 1.10,2013-05-27 01:43:00,
2013-05-26 20:58:00,56.5,55.0,30.05,ENE,78,12.0,18.0,96,0.02,,,0.39,weatherlink.com 1.10,2013-05-27 01:58:00,
2013-05-26 21:13:00,56.5,55.0,30.06,ENE,77,6.0,13.0,96,0.02,,,0.39,weatherlink.com 1.10,2013-05-27 02:13:00,
2013-05-26 21:28:00,56.5,55.0,30.07,ESE,108,6.0,10.0,96,0.02,,,0.39,weatherlink.com 1.10,2013-05-27 02:28:00,
2013-05-26 21:43:00,56.6,56.0,30.08,NE,52,5.0,14.0,96,0.01,,,0.39,weatherlink.com 1.10,2013-05-27 02:43:00,
2013-05-26 21:58:00,56.6,56.0,30.08,NE,56,2.0,12.0,96,0.00,,,0.39,weatherlink.com 1.10,2013-05-27 02:58:00,
2013-05-26 22:13:00,56.5,55.0,30.08,East,98,6.0,12.0,96,0.01,,,0.40,weatherlink.com 1.10,2013-05-27 03:13:00,
2013-05-26 22:28:00,56.4,55.0,30.07,ENE,77,4.0,11.0,96,0.01,,,0.40,weatherlink.com 1.10,2013-05-27 03:28:00,
2013-05-26 22:43:00,56.3,56.0,30.07,East,99,7.0,12.0,97,0.01,,,0.40,weatherlink.com 1.10,2013-05-27 03:43:00,
2013-05-26 22:58:00,56.2,55.0,30.07,NE,53,7.0,11.0,97,0.01,,,0.40,weatherlink.com 1.10,2013-05-27 03:58:00,
2013-05-26 23:13:00,56.2,55.0,30.07,ENE,77,8.0,10.0,97,0.00,,,0.40,weatherlink.com 1.10,2013-05-27 04:13:00,
2013-05-26 23:28:00,56.2,55.0,30.06,East,98,7.0,16.0,97,0.00,,,0.40,weatherlink.com 1.10,2013-05-27 04:28:00,
2013-05-26 23:43:00,56.3,56.0,30.04,East,79,7.0,14.0,97,0.00,,,0.40,weatherlink.com 1.10,2013-05-27 04:43:00,
2013-05-26 23:58:00,56.3,56.0,30.04,ESE,111,7.0,13.0,97,0.00,,,0.40,weatherlink.com 1.10,2013-05-27 04:58:00,